Time;durP1;ratioP1;P1;durP2;ratioP2;P2;SDS_P1;SDS_P2;PMS_P1;PMS_P2;Temp;Humidity;BMP_temperature;BMP_pressure;BME280_temperature;BME280_humidity;BME280_pressure;Samples;Min_cycle;Max_cycle;Signal;HPM_P1;HPM_P2
2021/07/24 00:01:47;;;;;;;16.65;12.70;;;20.20;99.90;;;;;;5031829;28;20048;-69
2021/07/24 00:04:14;;;;;;;19.52;12.93;;;20.20;99.90;;;;;;5009320;28;20049;-69
2021/07/24 00:06:45;;;;;;;16.42;13.10;;;20.20;99.90;;;;;;5007394;28;20483;-69
2021/07/24 00:09:14;;;;;;;18.73;13.10;;;20.10;99.90;;;;;;5030067;28;20076;-69
2021/07/24 00:11:57;;;;;;;17.58;13.35;;;20.10;99.90;;;;;;5086373;28;20132;-69
2021/07/24 00:14:25;;;;;;;21.92;12.85;;;20.10;99.90;;;;;;5068645;28;20041;-69
2021/07/24 00:16:52;;;;;;;18.83;13.45;;;20.10;99.90;;;;;;5067712;28;20045;-69
2021/07/24 00:19:20;;;;;;;16.90;12.75;;;20.10;99.90;;;;;;5065975;28;20098;-70
2021/07/24 00:21:49;;;;;;;16.25;12.27;;;20.10;99.90;;;;;;5057603;28;20526;-70
2021/07/24 00:24:17;;;;;;;18.33;12.95;;;20.00;99.90;;;;;;5063382;28;20037;-69
2021/07/24 00:26:46;;;;;;;21.17;12.63;;;20.00;99.90;;;;;;5045533;28;20941;-69
2021/07/24 00:29:15;;;;;;;20.13;13.27;;;19.90;99.90;;;;;;5058483;28;20063;-69
2021/07/24 00:31:43;;;;;;;18.38;13.15;;;19.90;99.90;;;;;;5046372;28;20643;-70
2021/07/24 00:34:10;;;;;;;17.95;13.13;;;19.90;99.90;;;;;;5046156;28;20041;-69
2021/07/24 00:36:39;;;;;;;17.27;13.20;;;19.80;99.90;;;;;;5021258;28;20061;-69
2021/07/24 00:39:06;;;;;;;16.60;12.82;;;19.80;99.90;;;;;;5042989;28;20049;-69
2021/07/24 00:41:43;;;;;;;16.17;12.10;;;19.80;99.90;;;;;;5051923;28;20053;-69
2021/07/24 00:44:17;;;;;;;16.50;12.63;;;19.80;99.90;;;;;;5048873;28;20067;-69
2021/07/24 00:46:45;;;;;;;17.40;13.57;;;19.70;99.90;;;;;;5032626;28;20055;-69
2021/07/24 00:49:15;;;;;;;16.95;13.05;;;19.70;99.90;;;;;;5049317;28;20132;-70
2021/07/24 00:51:55;;;;;;;17.13;12.52;;;19.60;99.90;;;;;;5043350;28;20033;-69
2021/07/24 00:54:23;;;;;;;19.15;12.52;;;19.60;99.90;;;;;;5047611;28;20056;-69
2021/07/24 00:56:51;;;;;;;21.33;13.07;;;19.60;99.90;;;;;;5058821;28;20438;-69
2021/07/24 00:59:18;;;;;;;19.90;13.38;;;19.50;99.90;;;;;;5054156;28;20039;-69
2021/07/24 01:01:46;;;;;;;20.92;12.95;;;19.50;99.90;;;;;;5062956;28;20044;-69
2021/07/24 01:04:14;;;;;;;20.67;13.00;;;19.50;99.90;;;;;;5041868;28;20041;-69
2021/07/24 01:06:44;;;;;;;18.08;12.98;;;19.50;99.90;;;;;;5057251;28;20458;-69
2021/07/24 01:09:12;;;;;;;17.85;13.57;;;19.40;99.90;;;;;;5062809;28;20079;-69
2021/07/24 01:11:40;;;;;;;21.55;13.80;;;19.40;99.90;;;;;;5065707;28;20041;-69
2021/07/24 01:14:07;;;;;;;19.85;13.32;;;19.40;99.90;;;;;;5050100;28;20049;-69
2021/07/24 01:16:36;;;;;;;19.45;13.80;;;19.30;99.90;;;;;;5033715;28;20047;-69
2021/07/24 01:19:24;;;;;;;17.17;12.95;;;19.30;99.90;;;;;;5060550;28;20099;-69
2021/07/24 01:21:53;;;;;;;18.25;12.25;;;19.30;99.90;;;;;;5020859;28;20112;-69
2021/07/24 01:24:24;;;;;;;16.90;12.82;;;19.20;99.90;;;;;;5014155;28;20041;-69
2021/07/24 01:26:53;;;;;;;17.30;12.23;;;19.20;99.90;;;;;;5028760;28;20118;-69
2021/07/24 01:29:22;;;;;;;18.05;13.00;;;19.10;99.90;;;;;;5042586;28;20100;-69
2021/07/24 01:31:54;;;;;;;20.10;14.15;;;19.10;99.90;;;;;;5046865;28;20442;-69
2021/07/24 01:34:24;;;;;;;17.15;13.00;;;19.00;99.90;;;;;;5029007;28;20037;-69
2021/07/24 01:36:52;;;;;;;17.63;12.68;;;19.00;99.90;;;;;;5016760;28;20054;-69
2021/07/24 01:39:20;;;;;;;17.45;13.57;;;18.90;99.90;;;;;;5043466;28;20052;-69
2021/07/24 01:41:48;;;;;;;16.70;12.65;;;18.90;99.90;;;;;;5046951;28;20048;-69
2021/07/24 01:44:17;;;;;;;17.90;13.30;;;18.80;99.90;;;;;;5046795;28;20091;-69
2021/07/24 01:46:45;;;;;;;18.33;13.00;;;18.80;99.90;;;;;;5046000;28;20500;-69
2021/07/24 01:55:12;;;;;;;18.13;12.93;;;18.70;99.90;;;;;;5043509;28;20562;-69
2021/07/24 01:57:53;;;;;;;20.88;13.20;;;18.70;99.90;;;;;;5044566;28;20467;-69
2021/07/24 02:00:23;;;;;;;18.45;13.52;;;18.70;99.90;;;;;;5042947;28;20400;-69
2021/07/24 02:03:15;;;;;;;;;;;18.70;99.90;;;;;;5036146;28;20065;-69
2021/07/24 02:06:01;;;;;;;19.52;12.98;;;18.70;99.90;;;;;;5023674;28;19925;-69
2021/07/24 02:08:29;;;;;;;19.35;13.57;;;18.70;99.90;;;;;;5049866;28;20123;-69
2021/07/24 02:11:00;;;;;;;20.38;13.02;;;18.70;99.90;;;;;;5023852;28;20041;-69
2021/07/24 02:13:27;;;;;;;17.08;13.27;;;18.60;99.90;;;;;;5042383;28;20065;-69
2021/07/24 02:15:57;;;;;;;18.58;13.55;;;18.60;99.90;;;;;;5043482;28;20091;-69
2021/07/24 02:18:29;;;;;;;18.60;13.88;;;18.60;99.90;;;;;;5016012;28;20141;-69
2021/07/24 02:21:12;;;;;;;19.67;14.20;;;18.60;99.90;;;;;;5018490;28;20049;-69
2021/07/24 02:23:41;;;;;;;17.17;12.70;;;18.60;99.90;;;;;;5035332;28;20128;-69
2021/07/24 02:26:11;;;;;;;18.30;13.05;;;18.50;99.90;;;;;;5021480;28;20072;-69
2021/07/24 02:28:41;;;;;;;20.52;13.77;;;18.40;99.90;;;;;;5048477;28;20048;-69
2021/07/24 02:31:09;;;;;;;18.65;13.68;;;18.40;99.90;;;;;;5048235;28;20073;-69
2021/07/24 02:33:38;;;;;;;20.15;14.00;;;18.30;99.90;;;;;;5048513;28;20103;-69
2021/07/24 02:36:10;;;;;;;16.27;12.80;;;18.30;99.90;;;;;;5039559;28;20045;-69
2021/07/24 02:38:38;;;;;;;18.13;13.52;;;18.20;99.90;;;;;;5037894;28;20045;-69
2021/07/24 02:41:05;;;;;;;18.52;13.65;;;18.20;99.90;;;;;;5036349;28;20523;-69
2021/07/24 02:43:33;;;;;;;19.90;13.88;;;18.20;99.90;;;;;;5039448;28;20538;-69
2021/07/24 02:46:01;;;;;;;17.88;13.02;;;18.10;99.90;;;;;;5034097;28;20073;-69
2021/07/24 02:48:30;;;;;;;18.20;13.30;;;18.10;99.90;;;;;;5038530;28;20124;-69
2021/07/24 02:51:16;;;;;;;18.95;13.52;;;18.10;99.90;;;;;;5030315;28;20037;-69
2021/07/24 02:53:47;;;;;;;21.00;14.02;;;18.00;99.90;;;;;;5027527;28;20048;-69
2021/07/24 02:56:15;;;;;;;20.17;15.00;;;18.00;99.90;;;;;;5029597;28;20096;-70
2021/07/24 02:58:43;;;;;;;23.90;14.82;;;18.00;99.90;;;;;;5018762;28;20516;-69
2021/07/24 03:01:10;;;;;;;19.70;14.07;;;17.90;99.90;;;;;;5031348;28;20056;-69
2021/07/24 03:03:38;;;;;;;20.73;15.18;;;17.90;99.90;;;;;;5034495;28;20050;-69
2021/07/24 03:06:05;;;;;;;17.85;14.38;;;17.90;99.90;;;;;;5038415;28;20053;-69
2021/07/24 03:08:32;;;;;;;18.23;14.27;;;17.80;99.90;;;;;;5033190;28;20488;-69
2021/07/24 03:11:00;;;;;;;19.98;14.77;;;17.80;99.90;;;;;;5022277;28;20404;-69
2021/07/24 03:13:27;;;;;;;20.92;14.45;;;17.80;99.90;;;;;;5037849;28;20086;-69
2021/07/24 03:15:54;;;;;;;18.60;14.20;;;17.70;99.90;;;;;;5031581;28;20043;-69
2021/07/24 03:18:22;;;;;;;20.90;14.43;;;17.70;99.90;;;;;;5011921;28;20108;-70
2021/07/24 03:20:49;;;;;;;23.75;15.45;;;17.70;99.90;;;;;;5027678;28;20087;-69
2021/07/24 03:23:16;;;;;;;18.63;13.65;;;17.60;99.90;;;;;;5014052;28;20045;-69
2021/07/24 03:25:44;;;;;;;19.20;14.10;;;17.60;99.90;;;;;;5027523;28;20103;-69
2021/07/24 03:28:11;;;;;;;19.33;14.70;;;17.60;99.90;;;;;;5020368;28;20453;-69
2021/07/24 03:30:38;;;;;;;21.27;14.63;;;17.60;99.90;;;;;;5033139;28;20045;-69
2021/07/24 03:33:06;;;;;;;20.30;14.52;;;17.50;99.90;;;;;;5040698;28;20110;-69
2021/07/24 03:35:34;;;;;;;21.60;15.13;;;17.50;99.90;;;;;;5035519;28;20033;-70
2021/07/24 03:38:06;;;;;;;19.20;13.95;;;17.50;99.90;;;;;;5032903;28;20048;-69
2021/07/24 03:40:33;;;;;;;20.52;15.38;;;17.50;99.90;;;;;;5031228;28;20042;-69
2021/07/24 03:43:00;;;;;;;21.15;14.20;;;17.50;99.90;;;;;;5027755;28;20045;-69
2021/07/24 03:45:28;;;;;;;21.42;14.45;;;17.50;99.90;;;;;;5031528;28;20056;-69
2021/07/24 03:47:55;;;;;;;21.42;14.98;;;17.50;99.90;;;;;;5030553;28;20037;-69
2021/07/24 03:50:23;;;;;;;19.90;14.88;;;17.50;99.90;;;;;;5031398;28;20068;-67
2021/07/24 03:52:51;;;;;;;21.08;14.85;;;17.60;99.90;;;;;;5036823;28;20044;-69
2021/07/24 03:55:18;;;;;;;19.20;15.02;;;17.60;99.90;;;;;;5033401;28;20041;-67
2021/07/24 03:57:46;;;;;;;20.00;14.23;;;17.60;99.90;;;;;;5043303;28;20095;-67
2021/07/24 04:00:13;;;;;;;19.95;14.77;;;17.60;99.90;;;;;;5038981;28;20033;-69
2021/07/24 04:02:44;;;;;;;23.45;14.52;;;17.70;99.90;;;;;;4996050;28;20585;-69
2021/07/24 04:05:12;;;;;;;19.45;14.63;;;17.70;99.90;;;;;;5022748;28;20064;-69
2021/07/24 04:07:41;;;;;;;19.27;14.27;;;17.70;99.90;;;;;;5028201;28;20049;-69
2021/07/24 04:10:10;;;;;;;22.50;15.27;;;17.80;99.90;;;;;;5029189;28;20049;-69
2021/07/24 04:12:42;;;;;;;18.70;13.05;;;17.90;99.90;;;;;;5031108;28;20045;-69
2021/07/24 04:15:10;;;;;;;19.23;14.48;;;17.90;99.90;;;;;;5032014;28;20041;-69
2021/07/24 04:17:37;;;;;;;18.35;14.25;;;18.00;99.90;;;;;;5039178;28;20444;-69
2021/07/24 04:20:05;;;;;;;18.38;14.00;;;18.10;99.90;;;;;;5039426;28;20446;-69
2021/07/24 04:22:35;;;;;;;18.30;13.80;;;18.20;99.90;;;;;;5040302;28;20119;-69
2021/07/24 04:25:03;;;;;;;17.70;13.15;;;18.30;99.90;;;;;;5031174;28;20088;-69
2021/07/24 04:27:30;;;;;;;18.45;13.65;;;18.30;99.90;;;;;;5032156;28;20049;-69
2021/07/24 04:29:58;;;;;;;17.98;13.10;;;18.40;99.90;;;;;;5030610;28;20072;-69
2021/07/24 04:32:26;;;;;;;18.50;14.25;;;18.40;99.90;;;;;;5029252;28;20069;-69
2021/07/24 04:34:54;;;;;;;18.77;13.32;;;18.50;99.90;;;;;;5047282;28;20103;-69
2021/07/24 04:37:21;;;;;;;19.95;13.82;;;18.50;99.90;;;;;;5036217;28;20053;-69
2021/07/24 04:39:49;;;;;;;19.83;14.13;;;18.60;99.90;;;;;;5035396;28;20041;-69
2021/07/24 04:42:16;;;;;;;17.85;13.20;;;18.60;99.90;;;;;;5034637;28;20046;-69
2021/07/24 04:44:44;;;;;;;18.85;13.57;;;18.70;99.90;;;;;;5036101;28;20065;-69
2021/07/24 04:47:11;;;;;;;18.70;13.55;;;18.80;99.90;;;;;;5042082;28;20059;-69
2021/07/24 04:49:48;;;;;;;17.48;13.00;;;18.90;99.90;;;;;;5027065;28;20475;-69
2021/07/24 04:52:19;;;;;;;18.40;14.00;;;19.00;99.90;;;;;;5039437;28;20087;-69
2021/07/24 04:54:48;;;;;;;19.93;13.17;;;19.10;99.90;;;;;;5026276;28;20119;-69
2021/07/24 04:57:18;;;;;;;18.20;12.77;;;19.10;99.90;;;;;;5038155;28;20541;-71
2021/07/24 04:59:47;;;;;;;19.77;12.98;;;19.10;99.90;;;;;;5022185;28;20080;-69
2021/07/24 05:02:17;;;;;;;17.67;12.10;;;19.20;99.90;;;;;;5031373;28;20760;-70
2021/07/24 05:04:47;;;;;;;15.38;12.30;;;19.20;99.90;;;;;;5031147;28;20459;-71
2021/07/24 05:07:18;;;;;;;17.20;12.07;;;19.30;99.90;;;;;;5035279;28;20046;-70
2021/07/24 05:09:47;;;;;;;16.20;12.32;;;19.40;99.90;;;;;;5050014;28;20067;-71
2021/07/24 05:12:14;;;;;;;15.77;11.60;;;19.40;99.90;;;;;;5036784;28;20064;-70
2021/07/24 05:14:41;;;;;;;17.40;12.23;;;19.60;99.90;;;;;;5052239;28;20037;-70
2021/07/24 05:17:11;;;;;;;16.30;11.55;;;19.70;99.90;;;;;;5048669;28;20455;-70
2021/07/24 05:19:43;;;;;;;16.33;11.52;;;19.80;99.90;;;;;;5037636;28;20033;-71
2021/07/24 05:22:13;;;;;;;18.23;12.52;;;19.90;99.90;;;;;;5021945;28;20061;-71
2021/07/24 05:24:44;;;;;;;14.98;10.77;;;20.00;99.90;;;;;;5038452;28;20042;-70
2021/07/24 05:27:12;;;;;;;16.23;10.48;;;20.10;99.90;;;;;;5012984;28;20068;-71
2021/07/24 05:29:40;;;;;;;14.95;10.65;;;20.20;99.90;;;;;;5042664;28;20040;-70
2021/07/24 05:32:07;;;;;;;14.20;10.55;;;20.30;99.90;;;;;;5040003;28;20040;-71
2021/07/24 05:34:35;;;;;;;15.88;11.20;;;20.40;99.90;;;;;;5043004;28;20055;-70
2021/07/24 05:37:02;;;;;;;17.08;11.90;;;20.50;99.90;;;;;;5042627;28;20040;-72
2021/07/24 05:39:30;;;;;;;14.52;11.15;;;20.60;99.90;;;;;;5041178;28;20045;-70
2021/07/24 05:41:57;;;;;;;16.33;11.23;;;20.70;99.90;;;;;;5028381;28;20052;-70
2021/07/24 05:44:24;;;;;;;14.27;11.45;;;20.80;99.90;;;;;;5040701;28;20065;-70
2021/07/24 05:46:52;;;;;;;15.48;12.05;;;20.90;99.90;;;;;;5030166;28;20072;-70
2021/07/24 05:49:19;;;;;;;16.65;11.27;;;21.10;99.90;;;;;;5038939;28;20045;-70
2021/07/24 05:51:46;;;;;;;15.65;11.35;;;21.20;99.90;;;;;;5032819;28;20049;-70
2021/07/24 05:54:17;;;;;;;17.33;10.40;;;21.30;99.90;;;;;;5029236;28;20052;-70
2021/07/24 05:56:44;;;;;;;15.40;11.15;;;21.50;99.90;;;;;;5035169;28;20065;-70
2021/07/24 05:59:11;;;;;;;12.82;10.65;;;21.70;99.90;;;;;;5040458;28;20087;-70
2021/07/24 06:01:38;;;;;;;11.98;9.18;;;21.80;99.90;;;;;;5019957;28;20100;-71
2021/07/24 06:04:08;;;;;;;15.13;10.77;;;22.00;99.90;;;;;;5031793;28;20058;-70
2021/07/24 06:06:35;;;;;;;15.05;11.05;;;22.10;99.90;;;;;;5033680;28;20049;-70
2021/07/24 06:09:03;;;;;;;16.08;11.23;;;22.30;99.90;;;;;;5022217;28;20049;-70
2021/07/24 06:11:33;;;;;;;15.00;10.93;;;22.50;99.90;;;;;;5038324;28;20059;-70
2021/07/24 06:14:23;;;;;;;17.90;14.80;;;22.60;99.90;;;;;;5046468;28;20049;-70
2021/07/24 06:16:54;;;;;;;18.90;14.65;;;22.80;99.90;;;;;;5008538;28;20044;-70
2021/07/24 06:19:21;;;;;;;18.55;12.43;;;23.10;99.90;;;;;;5042512;28;20449;-70
2021/07/24 06:21:49;;;;;;;15.90;12.35;;;23.20;99.90;;;;;;5045527;28;20094;-69
2021/07/24 06:24:16;;;;;;;18.27;11.60;;;23.40;99.90;;;;;;5044183;28;20056;-68
2021/07/24 06:26:44;;;;;;;14.02;10.63;;;23.50;99.90;;;;;;5045274;28;20064;-68
2021/07/24 06:29:11;;;;;;;12.90;9.50;;;23.60;99.90;;;;;;5042906;28;20099;-68
2021/07/24 06:31:39;;;;;;;19.33;15.35;;;23.70;99.90;;;;;;5047307;28;20079;-68
2021/07/24 06:34:07;;;;;;;15.32;10.93;;;23.80;99.90;;;;;;5022288;28;20041;-68
2021/07/24 06:36:34;;;;;;;14.48;10.07;;;23.70;99.90;;;;;;5038653;28;20548;-68
2021/07/24 06:39:04;;;;;;;15.02;10.30;;;23.60;99.90;;;;;;5040525;28;20050;-68
2021/07/24 06:41:34;;;;;;;12.70;9.55;;;23.50;99.90;;;;;;5039423;28;20052;-68
2021/07/24 06:44:02;;;;;;;17.70;10.23;;;23.50;99.90;;;;;;5045397;28;20053;-68
2021/07/24 06:46:31;;;;;;;15.95;10.02;;;23.40;99.90;;;;;;5038170;28;20138;-68
2021/07/24 06:48:59;;;;;;;16.10;11.23;;;23.30;99.90;;;;;;5036771;28;20104;-69
2021/07/24 06:51:26;;;;;;;16.45;12.07;;;23.20;99.90;;;;;;5032540;28;20439;-68
2021/07/24 06:53:54;;;;;;;14.27;10.73;;;23.10;99.90;;;;;;5030624;28;20046;-68
2021/07/24 06:56:21;;;;;;;13.38;10.90;;;23.10;99.90;;;;;;5031338;28;20431;-68
2021/07/24 06:58:51;;;;;;;15.45;10.70;;;23.20;99.90;;;;;;5029806;28;20060;-68
2021/07/24 07:01:18;;;;;;;17.58;12.35;;;23.20;99.90;;;;;;5024451;28;20116;-68
2021/07/24 07:03:46;;;;;;;13.25;10.65;;;23.30;99.90;;;;;;5017726;28;20052;-68
2021/07/24 07:06:14;;;;;;;12.57;9.73;;;23.30;99.90;;;;;;5014571;28;20069;-68
2021/07/24 07:08:41;;;;;;;13.18;10.05;;;23.40;99.90;;;;;;5002983;28;20088;-68
2021/07/24 07:11:09;;;;;;;16.45;10.77;;;23.50;99.90;;;;;;5030087;28;20033;-68
2021/07/24 07:13:36;;;;;;;13.90;10.48;;;23.60;99.90;;;;;;5031847;28;20050;-68
2021/07/24 07:16:08;;;;;;;12.95;9.77;;;23.70;99.90;;;;;;5019838;28;20088;-68
2021/07/24 07:18:37;;;;;;;14.55;10.30;;;23.80;99.90;;;;;;5030953;28;20037;-68
2021/07/24 07:21:07;;;;;;;13.38;9.70;;;23.90;99.90;;;;;;5013803;28;20116;-68
2021/07/24 07:23:36;;;;;;;15.82;11.95;;;24.10;99.90;;;;;;5007220;28;20037;-68
2021/07/24 07:26:03;;;;;;;14.13;11.15;;;24.10;99.90;;;;;;5029184;28;20053;-68
2021/07/24 07:28:31;;;;;;;17.25;12.75;;;24.20;99.90;;;;;;5014044;28;20049;-68
2021/07/24 07:30:59;;;;;;;17.63;12.27;;;24.20;99.90;;;;;;5012010;28;20583;-68
2021/07/24 07:33:27;;;;;;;13.32;10.73;;;24.50;99.90;;;;;;5031323;28;20072;-68
2021/07/24 07:35:54;;;;;;;13.90;10.70;;;24.70;99.90;;;;;;5031275;28;20562;-68
2021/07/24 07:38:22;;;;;;;18.33;9.65;;;24.90;99.90;;;;;;5025598;28;20052;-71
2021/07/24 07:40:49;;;;;;;13.07;9.95;;;25.10;99.90;;;;;;5006041;28;20051;-71
2021/07/24 07:43:16;;;;;;;13.23;10.10;;;25.40;99.90;;;;;;5031425;28;20084;-71
2021/07/24 07:45:44;;;;;;;13.13;10.50;;;25.60;99.90;;;;;;5031079;28;20048;-71
2021/07/24 07:48:11;;;;;;;12.57;9.55;;;25.70;99.90;;;;;;5032147;28;20073;-73
2021/07/24 07:50:41;;;;;;;12.98;9.77;;;25.90;99.90;;;;;;5027296;28;20330;-72
2021/07/24 07:53:08;;;;;;;15.70;9.15;;;26.10;99.90;;;;;;5030740;28;20041;-70
2021/07/24 07:55:36;;;;;;;12.32;9.52;;;26.20;99.90;;;;;;5014142;28;20050;-71
2021/07/24 07:58:11;;;;;;;12.90;10.03;;;26.50;99.90;;;;;;5032477;28;20048;-71
2021/07/24 08:00:38;;;;;;;11.50;8.95;;;26.50;99.90;;;;;;5034509;28;20037;-71
2021/07/24 08:03:06;;;;;;;11.60;9.38;;;26.60;99.90;;;;;;5031211;28;20057;-71
2021/07/24 08:05:34;;;;;;;15.40;10.13;;;26.70;99.90;;;;;;5035389;28;20048;-71
2021/07/24 08:08:02;;;;;;;11.38;9.25;;;26.70;99.90;;;;;;5041000;28;20108;-71
2021/07/24 08:10:29;;;;;;;12.75;8.63;;;26.60;99.90;;;;;;5036870;28;20038;-71
2021/07/24 08:12:57;;;;;;;12.30;9.32;;;26.70;99.90;;;;;;5042047;28;20073;-71
2021/07/24 08:15:24;;;;;;;12.70;9.60;;;26.80;99.90;;;;;;5012789;28;20136;-71
2021/07/24 08:17:53;;;;;;;12.88;9.27;;;27.00;99.90;;;;;;5040031;28;20548;-71
2021/07/24 08:20:20;;;;;;;14.55;10.18;;;27.40;99.90;;;;;;5035205;28;20073;-70
2021/07/24 08:22:47;;;;;;;15.40;10.43;;;27.50;99.90;;;;;;5034916;28;20044;-70
2021/07/24 08:25:15;;;;;;;14.85;10.50;;;27.80;99.90;;;;;;5012623;28;20049;-71
2021/07/24 08:27:42;;;;;;;12.55;8.85;;;28.00;99.90;;;;;;5029947;28;20121;-71
2021/07/24 08:30:10;;;;;;;13.32;9.35;;;28.10;99.90;;;;;;5034106;28;20046;-71
2021/07/24 08:32:38;;;;;;;12.10;8.40;;;28.30;99.90;;;;;;5004161;28;20108;-71
2021/07/24 08:35:05;;;;;;;14.77;9.05;;;28.30;99.90;;;;;;5041413;28;20056;-71
2021/07/24 08:37:34;;;;;;;13.02;10.35;;;28.30;99.90;;;;;;5033769;28;20104;-71
2021/07/24 08:40:01;;;;;;;13.32;9.70;;;28.40;99.90;;;;;;5036325;28;20037;-71
2021/07/24 08:42:36;;;;;;;11.95;9.32;;;28.40;99.90;;;;;;5033888;28;20053;-71
2021/07/24 08:45:04;;;;;;;14.50;9.40;;;28.60;99.90;;;;;;5021434;28;20132;-71
2021/07/24 08:47:32;;;;;;;11.50;8.63;;;28.60;99.90;;;;;;5034663;28;20522;-71
2021/07/24 08:50:01;;;;;;;15.32;9.05;;;28.50;99.90;;;;;;5012512;28;20076;-71
2021/07/24 08:52:31;;;;;;;11.20;8.63;;;28.50;99.90;;;;;;5033047;28;20037;-72
2021/07/24 08:55:01;;;;;;;12.73;8.45;;;28.50;99.90;;;;;;5030532;28;20076;-71
2021/07/24 08:57:33;;;;;;;12.50;8.88;;;28.50;99.90;;;;;;5041235;28;20033;-72
2021/07/24 09:00:12;;;;;;;13.32;9.30;;;28.30;99.90;;;;;;5039528;28;20049;-72
2021/07/24 09:02:41;;;;;;;12.93;8.32;;;28.40;99.90;;;;;;5021361;28;20045;-72
2021/07/24 09:05:12;;;;;;;12.27;8.13;;;28.40;99.90;;;;;;5031920;28;20083;-71
2021/07/24 09:07:47;;;;;;;11.48;8.50;;;28.80;99.90;;;;;;5050248;28;20377;-71
2021/07/24 09:10:15;;;;;;;12.55;8.65;;;29.10;99.90;;;;;;5047303;28;20049;-71
2021/07/24 09:12:45;;;;;;;12.02;8.10;;;29.30;99.90;;;;;;5036828;28;20043;-71
2021/07/24 09:15:18;;;;;;;12.23;8.80;;;29.40;99.90;;;;;;5040914;28;20042;-71
2021/07/24 09:17:46;;;;;;;11.35;7.95;;;29.80;99.90;;;;;;5038869;28;20041;-72
2021/07/24 09:20:14;;;;;;;11.02;7.93;;;29.80;99.90;;;;;;5033050;28;20034;-73
2021/07/24 09:22:42;;;;;;;12.07;9.63;;;29.80;99.90;;;;;;5037405;28;20488;-72
2021/07/24 09:25:15;;;;;;;13.50;8.82;;;29.90;99.90;;;;;;5026290;28;20080;-72
2021/07/24 09:27:47;;;;;;;12.25;8.38;;;29.90;99.90;;;;;;5001426;28;20046;-71
2021/07/24 09:30:32;;;;;;;10.98;8.63;;;29.90;99.90;;;;;;5025966;28;20041;-71
2021/07/24 09:33:11;;;;;;;11.25;8.45;;;29.80;99.90;;;;;;5037664;28;20052;-71
2021/07/24 09:35:55;;;;;;;11.95;8.05;;;29.60;99.90;;;;;;5033628;28;20045;-71
2021/07/24 09:38:32;;;;;;;13.65;9.32;;;29.40;99.90;;;;;;5015806;28;20045;-71
2021/07/24 09:41:02;;;;;;;9.63;8.18;;;29.60;99.90;;;;;;5032546;28;20038;-71
2021/07/24 09:43:39;;;;;;;10.93;9.20;;;29.90;99.90;;;;;;5038446;28;20049;-71
2021/07/24 09:46:21;;;;;;;14.75;8.68;;;30.40;99.90;;;;;;5019446;28;20048;-72
2021/07/24 09:48:53;;;;;;;10.88;7.90;;;30.90;99.90;;;;;;5031139;28;20369;-71
2021/07/24 09:51:41;;;;;;;12.18;8.90;;;31.00;99.40;;;;;;5042315;28;20048;-71
2021/07/24 09:54:38;;;;;;;14.38;8.15;;;31.20;99.10;;;;;;5038180;28;20049;-71
2021/07/24 09:57:05;;;;;;;10.00;8.13;;;31.10;97.10;;;;;;5016474;28;20053;-71
2021/07/24 09:59:34;;;;;;;13.23;7.72;;;31.00;97.10;;;;;;5038039;28;20150;-72
2021/07/24 10:02:02;;;;;;;9.88;8.10;;;31.20;97.30;;;;;;5023429;28;20494;-71
2021/07/24 10:04:35;;;;;;;9.73;7.60;;;31.50;95.80;;;;;;5041949;28;20139;-70
2021/07/24 10:07:27;;;;;;;11.02;8.55;;;31.80;95.10;;;;;;5034643;28;20484;-71
2021/07/24 10:09:55;;;;;;;;;;;32.10;93.70;;;;;;5033232;28;20049;-71
2021/07/24 10:12:22;;;;;;;16.73;11.20;;;32.30;93.20;;;;;;5033625;28;19963;-71
2021/07/24 10:14:52;;;;;;;12.57;8.70;;;32.40;92.50;;;;;;5035559;28;20047;-71
2021/07/24 10:17:19;;;;;;;12.32;8.40;;;32.40;92.30;;;;;;5038014;28;20056;-71
2021/07/24 10:19:47;;;;;;;9.75;7.65;;;32.40;91.90;;;;;;5034804;28;20061;-71
2021/07/24 10:22:16;;;;;;;11.45;7.85;;;32.60;91.70;;;;;;5031171;28;20045;-71
2021/07/24 10:24:44;;;;;;;9.55;7.47;;;32.60;90.70;;;;;;5037545;28;20494;-71
2021/07/24 10:27:17;;;;;;;13.05;8.70;;;32.70;90.30;;;;;;5028739;28;20083;-71
2021/07/24 10:29:52;;;;;;;10.73;7.82;;;32.70;90.10;;;;;;5021227;28;20064;-71
2021/07/24 10:32:25;;;;;;;9.10;7.30;;;33.00;89.80;;;;;;5017916;28;20073;-71
2021/07/24 10:34:54;;;;;;;12.38;8.20;;;33.10;89.80;;;;;;5040889;28;20787;-71
2021/07/24 10:37:42;;;;;;;10.27;7.82;;;32.70;86.90;;;;;;5035145;28;20568;-71
2021/07/24 10:40:24;;;;;;;8.90;7.22;;;32.30;87.80;;;;;;5035871;28;20136;-71
2021/07/24 10:42:52;;;;;;;10.63;7.28;;;32.00;88.10;;;;;;5037238;28;20045;-71
2021/07/24 10:45:31;;;;;;;11.10;7.18;;;31.80;87.40;;;;;;5038358;28;20048;-72
2021/07/24 10:48:13;;;;;;;9.43;7.60;;;31.60;88.30;;;;;;5037322;28;20461;-70
2021/07/24 10:50:53;;;;;;;9.95;8.20;;;31.40;89.70;;;;;;5028590;28;20045;-70
2021/07/24 10:53:22;;;;;;;10.57;7.88;;;31.30;89.40;;;;;;5034521;28;20042;-71
2021/07/24 10:55:51;;;;;;;14.10;8.13;;;31.20;90.10;;;;;;5036282;28;20043;-71
2021/07/24 10:58:24;;;;;;;12.05;7.60;;;31.10;90.20;;;;;;5040062;28;20033;-71
2021/07/24 11:01:00;;;;;;;10.88;7.75;;;31.00;90.40;;;;;;5040926;28;20099;-71
2021/07/24 11:03:36;;;;;;;11.23;7.80;;;31.10;90.00;;;;;;5019825;28;20046;-73
2021/07/24 11:06:27;;;;;;;9.75;7.80;;;31.10;88.70;;;;;;5001528;28;20042;-72
2021/07/24 11:09:01;;;;;;;10.50;7.35;;;31.10;87.70;;;;;;5046006;28;20049;-70
2021/07/24 11:11:41;;;;;;;13.10;8.30;;;31.00;86.80;;;;;;5030804;28;20060;-70
2021/07/24 11:14:34;;;;;;;8.77;7.10;;;31.20;87.60;;;;;;5036693;28;20103;-72
2021/07/24 11:17:05;;;;;;;9.88;7.10;;;31.50;88.10;;;;;;5031427;28;20053;-70
2021/07/24 11:20:05;;;;;;;10.82;8.02;;;31.70;87.70;;;;;;5030074;28;20482;-70
2021/07/24 11:22:35;;;;;;;;;;;31.60;87.60;;;;;;5021143;28;20827;-70
2021/07/24 11:25:03;;;;;;;9.88;7.63;;;31.60;87.20;;;;;;5036304;28;19967;-70
2021/07/24 11:27:34;;;;;;;10.90;7.90;;;31.60;88.30;;;;;;5036257;28;20144;-70
2021/07/24 11:30:02;;;;;;;11.18;7.30;;;31.50;88.20;;;;;;5035423;28;20092;-70
2021/07/24 11:32:36;;;;;;;12.65;7.88;;;31.40;89.30;;;;;;5012090;28;20041;-71
2021/07/24 11:35:09;;;;;;;11.13;8.07;;;31.50;88.80;;;;;;5030668;28;20487;-71
2021/07/24 11:37:37;;;;;;;9.73;8.10;;;31.60;87.60;;;;;;5013120;28;20445;-71
2021/07/24 11:40:05;;;;;;;10.80;7.85;;;31.90;87.00;;;;;;5030339;28;20069;-71
2021/07/24 11:42:35;;;;;;;11.23;7.57;;;32.20;86.90;;;;;;5036190;28;20045;-71
2021/07/24 11:45:03;;;;;;;11.65;8.10;;;32.50;87.40;;;;;;5035243;28;20044;-71
2021/07/24 11:47:33;;;;;;;11.95;8.32;;;32.40;86.00;;;;;;5036732;28;20131;-71
2021/07/24 11:50:17;;;;;;;15.98;11.15;;;32.00;85.00;;;;;;5034898;28;20583;-71
2021/07/24 11:52:49;;;;;;;10.77;8.13;;;31.70;86.50;;;;;;5029713;28;20134;-71
2021/07/24 11:55:26;;;;;;;11.85;8.90;;;31.50;87.30;;;;;;5031174;28;20492;-71
2021/07/24 11:58:17;;;;;;;10.95;9.07;;;31.40;88.40;;;;;;5036492;28;20120;-71
2021/07/24 12:00:46;;;;;;;13.50;8.50;;;31.10;88.20;;;;;;5030664;28;20033;-71
2021/07/24 12:03:21;;;;;;;12.35;8.90;;;31.00;88.40;;;;;;5028747;28;20118;-71
2021/07/24 12:06:18;;;;;;;11.80;10.15;;;30.80;88.90;;;;;;5039073;28;20044;-71
2021/07/24 12:08:46;;;;;;;13.45;9.85;;;30.70;90.00;;;;;;5015541;28;20045;-71
2021/07/24 12:11:16;;;;;;;14.95;9.35;;;30.60;89.60;;;;;;5031134;28;20041;-71
2021/07/24 12:13:44;;;;;;;14.25;9.02;;;30.60;89.60;;;;;;5043092;28;20644;-71
2021/07/24 12:16:17;;;;;;;12.05;9.40;;;30.80;89.80;;;;;;5045575;28;20040;-72
2021/07/24 12:18:53;;;;;;;14.05;10.73;;;31.10;89.50;;;;;;5030510;28;20133;-73
2021/07/24 12:21:25;;;;;;;12.60;9.20;;;31.70;89.60;;;;;;5009331;28;20037;-72
2021/07/24 12:23:58;;;;;;;13.20;9.00;;;32.20;87.70;;;;;;4989595;28;20085;-72
2021/07/24 12:26:33;;;;;;;11.18;9.13;;;33.20;84.80;;;;;;5034662;28;20041;-71
2021/07/24 12:29:11;;;;;;;10.52;8.65;;;34.40;82.90;;;;;;5013230;28;20136;-71
2021/07/24 12:31:53;;;;;;;12.55;9.07;;;35.30;81.50;;;;;;5033114;28;20116;-72
2021/07/24 12:34:22;;;;;;;11.82;9.05;;;35.20;80.60;;;;;;5033554;28;20041;-72
2021/07/24 12:36:56;;;;;;;9.98;7.88;;;35.60;80.80;;;;;;5020838;28;20076;-72
2021/07/24 12:39:25;;;;;;;10.63;8.27;;;35.80;79.20;;;;;;5046649;28;20790;-71
2021/07/24 12:42:03;;;;;;;11.45;8.02;;;35.90;79.00;;;;;;5030206;28;20123;-70
2021/07/24 12:44:32;;;;;;;10.13;7.57;;;35.80;77.50;;;;;;5023239;28;20508;-71
2021/07/24 12:47:13;;;;;;;11.27;7.65;;;36.10;75.60;;;;;;5036032;28;20408;-72
2021/07/24 12:49:42;;;;;;;11.00;8.20;;;36.30;75.00;;;;;;5032340;28;20045;-72
2021/07/24 12:52:31;;;;;;;16.25;11.90;;;35.70;74.40;;;;;;5035737;28;20040;-73
2021/07/24 12:55:11;;;;;;;13.13;9.73;;;35.00;75.70;;;;;;5011850;28;20061;-71
2021/07/24 12:57:39;;;;;;;10.32;7.75;;;34.40;75.80;;;;;;5031770;28;20033;-71